TVS4418 CYVR-BIKF
Flight info
| Callsign | TVS4418 |
|---|---|
| Flight time | N/A |
| Altitude | 35000 |
| Route | JANEK DCT LYTON DCT LONRO DCT YZU J527 YMM DCT 62N100W 6530N09000W 6730N08000W 6830N07000W DCT BOPUT DCT 69N060W 69N050W 68N040W 66N030W DCT INDES DCT INGAN |
| Aircraft | B738/M-SDE2E3FGHIRWXY/LB1 |
Departure
| Time | 2026-05-07 15:28 |
|---|---|
| Airport | Vancouver International Airport (CYVR) |
Arrival
| Time | N/A |
|---|---|
| Airport | Keflavik International Airport (BIKF) |
| Time | Latitude | Longitude | Altitude | Speed | Heading |
|---|---|---|---|---|---|
| 2026-05-07 14:59 | 49.19869 | -123.17855 | 22 ft | 0 kts | 221° |
| 2026-05-07 15:11 | 49.19873 | -123.17850 | 23 ft | 4 kts | 221° |
| 2026-05-07 15:11 | 49.19890 | -123.17827 | 25 ft | 2 kts | 221° |
| 2026-05-07 15:12 | 49.19909 | -123.17802 | 25 ft | 4 kts | 221° |
| 2026-05-07 15:12 | 49.19928 | -123.17773 | 26 ft | 4 kts | 237° |
| 2026-05-07 15:12 | 49.19934 | -123.17742 | 23 ft | 2 kts | 280° |
| 2026-05-07 15:12 | 49.19931 | -123.17710 | 24 ft | 0 kts | 280° |
| 2026-05-07 15:16 | 49.19931 | -123.17716 | 24 ft | 2 kts | 280° |
| 2026-05-07 15:17 | 49.19937 | -123.17765 | 24 ft | 8 kts | 280° |
| 2026-05-07 15:17 | 49.19961 | -123.17846 | 22 ft | 9 kts | 320° |
| 2026-05-07 15:17 | 49.19984 | -123.17928 | 22 ft | 9 kts | 280° |
| 2026-05-07 15:17 | 49.19994 | -123.18017 | 22 ft | 9 kts | 279° |
| 2026-05-07 15:18 | 49.20006 | -123.18121 | 22 ft | 11 kts | 279° |
| 2026-05-07 15:18 | 49.20019 | -123.18236 | 22 ft | 11 kts | 280° |
| 2026-05-07 15:18 | 49.20031 | -123.18347 | 23 ft | 10 kts | 280° |
| 2026-05-07 15:18 | 49.20043 | -123.18455 | 22 ft | 10 kts | 279° |
| 2026-05-07 15:19 | 49.20008 | -123.18532 | 23 ft | 10 kts | 191° |
| 2026-05-07 15:19 | 49.19939 | -123.18550 | 22 ft | 11 kts | 189° |
| 2026-05-07 15:19 | 49.19845 | -123.18572 | 22 ft | 17 kts | 189° |
| 2026-05-07 15:19 | 49.19742 | -123.18604 | 22 ft | 13 kts | 207° |
| 2026-05-07 15:20 | 49.19669 | -123.18672 | 22 ft | 12 kts | 189° |
| 2026-05-07 15:20 | 49.19585 | -123.18694 | 22 ft | 12 kts | 190° |
| 2026-05-07 15:20 | 49.19503 | -123.18717 | 23 ft | 12 kts | 190° |
| 2026-05-07 15:20 | 49.19423 | -123.18738 | 22 ft | 11 kts | 189° |
| 2026-05-07 15:21 | 49.19380 | -123.18827 | 24 ft | 11 kts | 259° |
| 2026-05-07 15:21 | 49.19366 | -123.18942 | 25 ft | 11 kts | 259° |
| 2026-05-07 15:21 | 49.19352 | -123.19054 | 24 ft | 11 kts | 259° |
| 2026-05-07 15:21 | 49.19339 | -123.19163 | 22 ft | 10 kts | 260° |
| 2026-05-07 15:22 | 49.19326 | -123.19279 | 21 ft | 12 kts | 260° |
| 2026-05-07 15:22 | 49.19308 | -123.19433 | 22 ft | 17 kts | 260° |
| 2026-05-07 15:22 | 49.19283 | -123.19630 | 22 ft | 20 kts | 259° |
| 2026-05-07 15:22 | 49.19256 | -123.19839 | 22 ft | 20 kts | 259° |
| 2026-05-07 15:23 | 49.19232 | -123.20040 | 22 ft | 19 kts | 259° |
| 2026-05-07 15:23 | 49.19207 | -123.20237 | 23 ft | 19 kts | 258° |
| 2026-05-07 15:23 | 49.19182 | -123.20426 | 22 ft | 18 kts | 259° |
| 2026-05-07 15:23 | 49.19189 | -123.20611 | 22 ft | 17 kts | 280° |
| 2026-05-07 15:24 | 49.19196 | -123.20782 | 22 ft | 15 kts | 243° |
| 2026-05-07 15:24 | 49.19106 | -123.20839 | 22 ft | 14 kts | 190° |
| 2026-05-07 15:24 | 49.19020 | -123.20811 | 23 ft | 13 kts | 125° |
| 2026-05-07 15:24 | 49.18995 | -123.20678 | 23 ft | 13 kts | 100° |
| 2026-05-07 15:25 | 49.18990 | -123.20635 | 27 ft | 3 kts | 100° |
| 2026-05-07 15:25 | 49.18987 | -123.20609 | 26 ft | 2 kts | 100° |
| 2026-05-07 15:25 | 49.18984 | -123.20583 | 24 ft | 2 kts | 100° |
| 2026-05-07 15:25 | 49.18981 | -123.20560 | 23 ft | 2 kts | 100° |
| 2026-05-07 15:26 | 49.18979 | -123.20536 | 23 ft | 0 kts | 99° |
| 2026-05-07 15:26 | 49.18978 | -123.20533 | 25 ft | 2 kts | 99° |
| 2026-05-07 15:26 | 49.18971 | -123.20463 | 23 ft | 12 kts | 99° |
| 2026-05-07 15:27 | 49.18923 | -123.20043 | 22 ft | 72 kts | 100° |
| 2026-05-07 15:27 | 49.18803 | -123.18993 | 23 ft | 127 kts | 99° |
| 2026-05-07 15:27 | 49.18623 | -123.17414 | 42 ft | 171 kts | 100° |
| 2026-05-07 15:27 | 49.18415 | -123.15586 | 582 ft | 174 kts | 99° |
| 2026-05-07 15:28 | 49.18233 | -123.13712 | 1197 ft | 183 kts | 98° |
| 2026-05-07 15:28 | 49.18042 | -123.11736 | 1680 ft | 190 kts | 98° |
| 2026-05-07 15:28 | 49.17838 | -123.09716 | 2249 ft | 193 kts | 98° |
| 2026-05-07 15:28 | 49.17633 | -123.07686 | 2853 ft | 196 kts | 98° |
| 2026-05-07 15:29 | 49.17420 | -123.05559 | 3164 ft | 209 kts | 98° |
| 2026-05-07 15:29 | 49.17192 | -123.03267 | 3315 ft | 227 kts | 98° |
| 2026-05-07 15:29 | 49.16946 | -123.00788 | 3477 ft | 244 kts | 98° |
| 2026-05-07 15:29 | 49.16779 | -122.98137 | 3701 ft | 258 kts | 87° |
| 2026-05-07 15:30 | 49.17097 | -122.95414 | 4269 ft | 261 kts | 71° |
| 2026-05-07 15:30 | 49.17886 | -122.92931 | 4984 ft | 262 kts | 55° |
| 2026-05-07 15:30 | 49.19143 | -122.90933 | 5583 ft | 265 kts | 34° |
| 2026-05-07 15:30 | 49.20748 | -122.89484 | 6196 ft | 272 kts | 30° |
| 2026-05-07 15:31 | 49.22457 | -122.88032 | 6492 ft | 289 kts | 30° |
| 2026-05-07 15:31 | 49.24237 | -122.86533 | 7010 ft | 294 kts | 29° |
| 2026-05-07 15:31 | 49.26046 | -122.85011 | 7562 ft | 298 kts | 29° |
| 2026-05-07 15:31 | 49.27861 | -122.83475 | 8152 ft | 300 kts | 29° |
| 2026-05-07 15:32 | 49.29610 | -122.81992 | 8674 ft | 304 kts | 29° |
| 2026-05-07 15:32 | 49.31476 | -122.80403 | 9248 ft | 308 kts | 29° |
| 2026-05-07 15:32 | 49.33364 | -122.78798 | 9842 ft | 312 kts | 29° |
| 2026-05-07 15:32 | 49.35294 | -122.77144 | 10367 ft | 316 kts | 28° |
| 2026-05-07 15:33 | 49.37221 | -122.75488 | 10813 ft | 322 kts | 28° |
| 2026-05-07 15:33 | 49.39207 | -122.73785 | 10931 ft | 339 kts | 28° |
| 2026-05-07 15:33 | 49.41321 | -122.71982 | 11062 ft | 356 kts | 28° |
| 2026-05-07 15:33 | 49.43533 | -122.70089 | 11180 ft | 371 kts | 28° |
| 2026-05-07 15:34 | 49.45832 | -122.68116 | 11299 ft | 386 kts | 28° |
| 2026-05-07 15:34 | 49.48210 | -122.66072 | 11514 ft | 396 kts | 28° |
| 2026-05-07 15:34 | 49.50626 | -122.63992 | 11959 ft | 399 kts | 28° |
| 2026-05-07 15:34 | 49.53052 | -122.61899 | 12486 ft | 400 kts | 28° |
| 2026-05-07 15:35 | 49.55484 | -122.59799 | 12953 ft | 402 kts | 28° |
| 2026-05-07 15:35 | 49.57936 | -122.57679 | 13435 ft | 405 kts | 28° |
| 2026-05-07 15:35 | 49.60401 | -122.55545 | 13909 ft | 408 kts | 28° |
| 2026-05-07 15:35 | 49.62883 | -122.53396 | 14348 ft | 410 kts | 28° |
| 2026-05-07 15:36 | 49.65380 | -122.51231 | 14803 ft | 412 kts | 28° |
| 2026-05-07 15:36 | 49.67880 | -122.49032 | 15278 ft | 414 kts | 30° |
| 2026-05-07 15:36 | 49.70279 | -122.46543 | 15755 ft | 417 kts | 33° |
| 2026-05-07 15:36 | 49.72639 | -122.43901 | 16156 ft | 420 kts | 34° |
| 2026-05-07 15:37 | 49.74996 | -122.41211 | 16564 ft | 422 kts | 34° |
| 2026-05-07 15:37 | 49.77336 | -122.38537 | 16974 ft | 425 kts | 34° |
| 2026-05-07 15:37 | 49.79730 | -122.35816 | 17339 ft | 428 kts | 33° |
| 2026-05-07 15:37 | 49.82143 | -122.33088 | 17808 ft | 430 kts | 33° |
| 2026-05-07 15:38 | 49.84569 | -122.30355 | 18220 ft | 432 kts | 33° |
| 2026-05-07 15:38 | 49.87004 | -122.27618 | 18602 ft | 434 kts | 32° |
| 2026-05-07 15:38 | 49.89452 | -122.24864 | 18914 ft | 437 kts | 32° |
| 2026-05-07 15:38 | 49.91930 | -122.22077 | 19236 ft | 439 kts | 32° |
| 2026-05-07 15:39 | 49.94416 | -122.19277 | 19524 ft | 442 kts | 32° |
| 2026-05-07 15:39 | 49.96911 | -122.16464 | 19836 ft | 445 kts | 32° |
| 2026-05-07 15:39 | 49.99400 | -122.13652 | 20166 ft | 447 kts | 32° |
| 2026-05-07 15:39 | 50.01917 | -122.10804 | 20556 ft | 448 kts | 32° |
| 2026-05-07 15:40 | 50.04445 | -122.07939 | 20848 ft | 451 kts | 31° |
| 2026-05-07 15:40 | 50.06986 | -122.05055 | 21159 ft | 453 kts | 31° |
| 2026-05-07 15:40 | 50.09542 | -122.02153 | 21459 ft | 455 kts | 31° |
| 2026-05-07 15:40 | 50.12110 | -121.99232 | 21748 ft | 458 kts | 31° |
| 2026-05-07 15:41 | 50.14689 | -121.96291 | 22015 ft | 461 kts | 31° |
| 2026-05-07 15:41 | 50.17287 | -121.93324 | 22320 ft | 462 kts | 31° |
| 2026-05-07 15:41 | 50.19885 | -121.90357 | 22670 ft | 463 kts | 31° |
| 2026-05-07 15:41 | 50.22496 | -121.87373 | 22918 ft | 467 kts | 30° |
| 2026-05-07 15:42 | 50.25089 | -121.84385 | 23187 ft | 470 kts | 32° |
| 2026-05-07 15:42 | 50.27609 | -121.81068 | 23474 ft | 475 kts | 36° |
| 2026-05-07 15:42 | 50.30051 | -121.77576 | 23747 ft | 477 kts | 37° |
| 2026-05-07 15:42 | 50.32473 | -121.74000 | 23943 ft | 479 kts | 37° |
| 2026-05-07 15:43 | 50.34894 | -121.70396 | 24150 ft | 481 kts | 37° |
| 2026-05-07 15:43 | 50.37334 | -121.66780 | 24336 ft | 482 kts | 37° |
| 2026-05-07 15:43 | 50.39785 | -121.63163 | 24540 ft | 484 kts | 37° |
| 2026-05-07 15:43 | 50.42247 | -121.59549 | 24780 ft | 486 kts | 37° |
| 2026-05-07 15:44 | 50.44719 | -121.55931 | 25026 ft | 486 kts | 37° |
| 2026-05-07 15:44 | 50.47199 | -121.52309 | 25297 ft | 487 kts | 36° |
| 2026-05-07 15:44 | 50.48838 | -121.49915 | 25499 ft | 486 kts | 36° |
| 2026-05-07 15:44 | 50.51310 | -121.46300 | 25838 ft | 484 kts | 36° |
| 2026-05-07 15:45 | 50.53771 | -121.42697 | 26149 ft | 483 kts | 36° |
| 2026-05-07 15:45 | 50.56237 | -121.39082 | 26395 ft | 484 kts | 36° |
| 2026-05-07 15:45 | 50.58701 | -121.35463 | 26750 ft | 483 kts | 36° |
| 2026-05-07 15:45 | 50.61943 | -121.30691 | 27250 ft | 480 kts | 36° |
| 2026-05-07 15:46 | 50.66023 | -121.24669 | 27798 ft | 479 kts | 36° |
| 2026-05-07 15:46 | 50.68426 | -121.21120 | 28129 ft | 479 kts | 36° |
| 2026-05-07 15:46 | 50.70851 | -121.17534 | 28480 ft | 478 kts | 36° |
| 2026-05-07 15:47 | 50.73270 | -121.13949 | 28816 ft | 477 kts | 36° |
| 2026-05-07 15:47 | 50.75691 | -121.10357 | 29161 ft | 476 kts | 36° |
| 2026-05-07 15:47 | 50.78106 | -121.06768 | 29491 ft | 475 kts | 36° |
| 2026-05-07 15:47 | 50.80515 | -121.03182 | 29809 ft | 475 kts | 36° |
| 2026-05-07 15:48 | 50.82922 | -120.99594 | 30122 ft | 474 kts | 36° |
| 2026-05-07 15:48 | 50.85312 | -120.96025 | 30389 ft | 472 kts | 35° |
| 2026-05-07 15:48 | 50.87694 | -120.92460 | 30693 ft | 471 kts | 35° |
| 2026-05-07 15:48 | 50.90042 | -120.88942 | 30989 ft | 469 kts | 35° |
| 2026-05-07 15:49 | 50.92415 | -120.85383 | 31265 ft | 468 kts | 35° |
| 2026-05-07 15:49 | 50.94779 | -120.81833 | 31524 ft | 467 kts | 35° |
| 2026-05-07 15:49 | 50.97131 | -120.78294 | 31812 ft | 466 kts | 35° |
| 2026-05-07 15:49 | 50.99483 | -120.74751 | 32088 ft | 464 kts | 35° |
| 2026-05-07 15:50 | 51.01824 | -120.71218 | 32327 ft | 464 kts | 34° |
| 2026-05-07 15:50 | 51.04167 | -120.67680 | 32565 ft | 464 kts | 34° |
| 2026-05-07 15:50 | 51.06498 | -120.64152 | 32844 ft | 463 kts | 34° |
| 2026-05-07 15:50 | 51.08823 | -120.60628 | 33130 ft | 461 kts | 34° |
| 2026-05-07 15:51 | 51.11139 | -120.57112 | 33379 ft | 459 kts | 34° |
| 2026-05-07 15:51 | 51.13426 | -120.53639 | 33568 ft | 460 kts | 34° |
| 2026-05-07 15:51 | 51.15744 | -120.50114 | 33772 ft | 460 kts | 34° |
| 2026-05-07 15:51 | 51.18055 | -120.46592 | 34010 ft | 459 kts | 34° |
| 2026-05-07 15:52 | 51.20357 | -120.43079 | 34228 ft | 458 kts | 34° |
| 2026-05-07 15:52 | 51.22661 | -120.39556 | 34389 ft | 458 kts | 34° |
| 2026-05-07 15:52 | 51.24962 | -120.36035 | 34518 ft | 458 kts | 34° |
| 2026-05-07 15:52 | 51.27265 | -120.32507 | 34655 ft | 459 kts | 34° |
| 2026-05-07 15:53 | 51.29566 | -120.28976 | 34809 ft | 459 kts | 34° |
| 2026-05-07 15:53 | 51.31871 | -120.25432 | 34962 ft | 458 kts | 34° |
| 2026-05-07 15:53 | 51.34134 | -120.21947 | 35108 ft | 458 kts | 34° |
| 2026-05-07 15:53 | 51.36427 | -120.18410 | 35237 ft | 458 kts | 34° |
| 2026-05-07 15:54 | 51.38722 | -120.14866 | 35381 ft | 458 kts | 35° |
| 2026-05-07 15:54 | 51.41010 | -120.11327 | 35520 ft | 457 kts | 35° |
| 2026-05-07 15:54 | 51.43301 | -120.07775 | 35663 ft | 457 kts | 35° |
| 2026-05-07 15:54 | 51.45574 | -120.04245 | 35880 ft | 454 kts | 35° |
| 2026-05-07 15:55 | 51.47848 | -120.00714 | 35975 ft | 455 kts | 35° |
| 2026-05-07 15:55 | 51.50122 | -119.97178 | 36091 ft | 455 kts | 35° |
| 2026-05-07 15:55 | 51.52400 | -119.93633 | 36088 ft | 457 kts | 35° |
| 2026-05-07 15:56 | 51.56984 | -119.86485 | 36104 ft | 461 kts | 35° |
| 2026-05-07 15:56 | 51.61599 | -119.79259 | 36103 ft | 465 kts | 35° |
| 2026-05-07 15:57 | 51.66243 | -119.71964 | 36118 ft | 468 kts | 35° |
| 2026-05-07 15:57 | 51.70877 | -119.64660 | 36112 ft | 469 kts | 35° |
| 2026-05-07 15:58 | 51.75544 | -119.57280 | 36105 ft | 469 kts | 35° |
| 2026-05-07 15:58 | 51.80207 | -119.49889 | 36103 ft | 469 kts | 35° |
| 2026-05-07 15:59 | 51.84859 | -119.42487 | 36114 ft | 468 kts | 35° |
| 2026-05-07 15:59 | 51.89492 | -119.35097 | 36115 ft | 467 kts | 35° |
| 2026-05-07 16:00 | 51.94078 | -119.27760 | 36103 ft | 466 kts | 35° |
| 2026-05-07 16:00 | 51.98681 | -119.20373 | 36105 ft | 465 kts | 35° |
| 2026-05-07 16:01 | 52.03250 | -119.13015 | 36114 ft | 460 kts | 35° |
| 2026-05-07 16:01 | 52.07793 | -119.05679 | 36130 ft | 461 kts | 35° |
| 2026-05-07 16:02 | 52.12354 | -118.98301 | 36096 ft | 462 kts | 35° |
| 2026-05-07 16:02 | 52.16912 | -118.90899 | 36113 ft | 463 kts | 35° |
| 2026-05-07 16:03 | 52.21448 | -118.83509 | 36100 ft | 464 kts | 35° |
| 2026-05-07 16:03 | 52.26002 | -118.76063 | 36094 ft | 462 kts | 36° |
| 2026-05-07 16:04 | 52.30534 | -118.68632 | 36105 ft | 461 kts | 35° |
| 2026-05-07 16:04 | 52.35060 | -118.61192 | 36105 ft | 461 kts | 36° |
| 2026-05-07 16:05 | 52.39562 | -118.53767 | 36112 ft | 462 kts | 36° |
| 2026-05-07 16:05 | 52.44084 | -118.46282 | 36127 ft | 459 kts | 36° |
| 2026-05-07 16:06 | 52.48579 | -118.38818 | 36116 ft | 460 kts | 37° |
| 2026-05-07 16:06 | 52.53092 | -118.31309 | 36085 ft | 462 kts | 37° |
| 2026-05-07 16:07 | 52.57580 | -118.23815 | 36091 ft | 463 kts | 37° |
| 2026-05-07 16:07 | 52.62100 | -118.16247 | 36085 ft | 464 kts | 37° |
| 2026-05-07 16:08 | 52.66793 | -118.09014 | 36089 ft | 461 kts | 34° |
| 2026-05-07 16:08 | 52.71623 | -118.01984 | 36083 ft | 462 kts | 34° |
| 2026-05-07 16:09 | 52.76435 | -117.94945 | 36073 ft | 462 kts | 34° |
| 2026-05-07 16:09 | 52.81186 | -117.87902 | 36068 ft | 461 kts | 35° |
| 2026-05-07 16:10 | 52.85949 | -117.80784 | 36079 ft | 460 kts | 35° |
| 2026-05-07 16:10 | 52.90694 | -117.73664 | 36062 ft | 460 kts | 36° |
| 2026-05-07 16:11 | 52.95432 | -117.66538 | 36059 ft | 459 kts | 36° |
| 2026-05-07 16:11 | 53.00160 | -117.59406 | 36049 ft | 458 kts | 36° |
| 2026-05-07 16:12 | 53.04844 | -117.52321 | 36043 ft | 458 kts | 36° |
| 2026-05-07 16:12 | 53.09564 | -117.45156 | 36025 ft | 458 kts | 36° |
| 2026-05-07 16:13 | 53.14267 | -117.37996 | 36025 ft | 457 kts | 36° |
| 2026-05-07 16:13 | 53.18966 | -117.30820 | 36011 ft | 457 kts | 37° |
| 2026-05-07 16:14 | 53.23653 | -117.23638 | 36008 ft | 457 kts | 37° |
| 2026-05-07 16:14 | 53.28339 | -117.16436 | 36000 ft | 458 kts | 37° |
| 2026-05-07 16:15 | 53.33026 | -117.09214 | 35994 ft | 458 kts | 37° |
| 2026-05-07 16:15 | 53.37675 | -117.02026 | 35985 ft | 458 kts | 37° |
| 2026-05-07 16:16 | 53.42353 | -116.94769 | 35990 ft | 458 kts | 37° |
| 2026-05-07 16:16 | 53.47031 | -116.87492 | 35974 ft | 459 kts | 37° |
| 2026-05-07 16:17 | 53.51712 | -116.80183 | 35983 ft | 459 kts | 37° |
| 2026-05-07 16:17 | 53.56384 | -116.72865 | 35968 ft | 459 kts | 37° |
| 2026-05-07 16:18 | 53.61023 | -116.65578 | 35977 ft | 459 kts | 37° |
| 2026-05-07 16:18 | 53.65693 | -116.58232 | 35976 ft | 458 kts | 38° |
| 2026-05-07 16:19 | 53.70350 | -116.50863 | 35975 ft | 458 kts | 38° |
| 2026-05-07 16:19 | 53.75002 | -116.43479 | 35968 ft | 458 kts | 38° |
| 2026-05-07 16:20 | 53.79613 | -116.36140 | 35974 ft | 458 kts | 38° |
| 2026-05-07 16:20 | 53.84245 | -116.28746 | 35965 ft | 457 kts | 38° |
| 2026-05-07 16:21 | 53.88874 | -116.21335 | 35974 ft | 456 kts | 38° |
| 2026-05-07 16:21 | 53.93481 | -116.13934 | 35961 ft | 456 kts | 38° |
| 2026-05-07 16:22 | 53.98076 | -116.06530 | 35959 ft | 455 kts | 38° |
| 2026-05-07 16:22 | 54.02680 | -115.99087 | 35953 ft | 456 kts | 38° |
| 2026-05-07 16:23 | 54.07243 | -115.91685 | 35958 ft | 455 kts | 38° |
| 2026-05-07 16:23 | 54.11829 | -115.84224 | 35955 ft | 455 kts | 38° |
| 2026-05-07 16:24 | 54.16390 | -115.76744 | 35960 ft | 455 kts | 39° |
| 2026-05-07 16:24 | 54.20890 | -115.69105 | 35947 ft | 456 kts | 39° |
| 2026-05-07 16:25 | 54.25343 | -115.61461 | 35963 ft | 456 kts | 39° |
| 2026-05-07 16:25 | 54.29820 | -115.53774 | 35950 ft | 456 kts | 39° |
| 2026-05-07 16:26 | 54.34311 | -115.46060 | 35958 ft | 456 kts | 39° |
| 2026-05-07 16:26 | 54.38796 | -115.38339 | 35952 ft | 457 kts | 39° |
| 2026-05-07 16:27 | 54.43277 | -115.30596 | 35946 ft | 457 kts | 39° |
| 2026-05-07 16:27 | 54.47725 | -115.22882 | 35937 ft | 457 kts | 39° |
| 2026-05-07 16:28 | 54.52199 | -115.15103 | 35942 ft | 457 kts | 39° |
| 2026-05-07 16:28 | 54.56675 | -115.07290 | 35935 ft | 457 kts | 39° |
| 2026-05-07 16:29 | 54.61114 | -114.99519 | 35940 ft | 457 kts | 39° |
| 2026-05-07 16:29 | 54.65570 | -114.91693 | 35929 ft | 457 kts | 39° |
| 2026-05-07 16:30 | 54.70021 | -114.83848 | 35934 ft | 456 kts | 39° |
| 2026-05-07 16:30 | 54.74463 | -114.75993 | 35924 ft | 456 kts | 39° |
| 2026-05-07 16:31 | 54.78899 | -114.68122 | 35920 ft | 456 kts | 39° |
| 2026-05-07 16:31 | 54.82577 | -114.61576 | 35926 ft | 455 kts | 39° |
| 2026-05-07 16:32 | 54.87707 | -114.52413 | 35916 ft | 454 kts | 40° |
| 2026-05-07 16:32 | 54.91369 | -114.45852 | 35918 ft | 453 kts | 40° |
| 2026-05-07 16:33 | 54.95759 | -114.37967 | 35924 ft | 452 kts | 40° |
| 2026-05-07 16:33 | 55.00139 | -114.30070 | 35915 ft | 452 kts | 40° |
| 2026-05-07 16:34 | 55.04497 | -114.22186 | 35920 ft | 451 kts | 40° |
| 2026-05-07 16:34 | 55.08825 | -114.14327 | 35910 ft | 451 kts | 40° |
| 2026-05-07 16:35 | 55.13175 | -114.06404 | 35915 ft | 451 kts | 40° |
| 2026-05-07 16:35 | 55.17489 | -113.98524 | 35908 ft | 451 kts | 40° |
| 2026-05-07 16:36 | 55.21820 | -113.90581 | 35906 ft | 451 kts | 40° |
| 2026-05-07 16:36 | 55.26146 | -113.82621 | 35894 ft | 451 kts | 40° |
| 2026-05-07 16:37 | 55.30476 | -113.74629 | 35895 ft | 451 kts | 40° |
| 2026-05-07 16:37 | 55.34799 | -113.66623 | 35891 ft | 452 kts | 40° |
| 2026-05-07 16:38 | 55.39096 | -113.58641 | 35880 ft | 452 kts | 40° |
| 2026-05-07 16:38 | 55.43421 | -113.50573 | 35875 ft | 452 kts | 40° |
| 2026-05-07 16:39 | 55.47739 | -113.42494 | 35872 ft | 452 kts | 40° |
| 2026-05-07 16:39 | 55.52044 | -113.34409 | 35872 ft | 451 kts | 40° |
| 2026-05-07 16:40 | 55.56313 | -113.26366 | 35877 ft | 451 kts | 40° |
| 2026-05-07 16:40 | 55.60603 | -113.18256 | 35874 ft | 451 kts | 41° |
| 2026-05-07 16:41 | 55.64882 | -113.10135 | 35861 ft | 450 kts | 41° |
| 2026-05-07 16:41 | 55.69149 | -113.02014 | 35861 ft | 450 kts | 41° |
| 2026-05-07 16:42 | 55.73407 | -112.93879 | 35861 ft | 449 kts | 41° |
| 2026-05-07 16:42 | 55.77653 | -112.85743 | 35850 ft | 449 kts | 41° |
| 2026-05-07 16:43 | 55.81890 | -112.77595 | 35858 ft | 448 kts | 41° |
| 2026-05-07 16:43 | 55.86081 | -112.69506 | 35850 ft | 447 kts | 41° |
| 2026-05-07 16:44 | 55.90291 | -112.61354 | 35858 ft | 447 kts | 41° |
| 2026-05-07 16:44 | 55.94496 | -112.53183 | 35849 ft | 446 kts | 41° |
| 2026-05-07 16:45 | 55.98687 | -112.45009 | 35852 ft | 445 kts | 41° |
| 2026-05-07 16:45 | 56.02867 | -112.36831 | 35857 ft | 445 kts | 41° |
| 2026-05-07 16:46 | 56.07013 | -112.28691 | 35857 ft | 445 kts | 41° |
| 2026-05-07 16:46 | 56.11184 | -112.20472 | 35855 ft | 445 kts | 41° |
| 2026-05-07 16:47 | 56.15342 | -112.12249 | 35861 ft | 445 kts | 41° |
| 2026-05-07 16:47 | 56.19503 | -112.03991 | 35856 ft | 446 kts | 41° |
| 2026-05-07 16:48 | 56.23662 | -111.95712 | 35859 ft | 446 kts | 41° |
| 2026-05-07 16:48 | 56.27809 | -111.87426 | 35854 ft | 446 kts | 41° |
| 2026-05-07 16:49 | 56.31927 | -111.79169 | 35862 ft | 445 kts | 41° |
| 2026-05-07 16:49 | 56.36070 | -111.70835 | 35854 ft | 446 kts | 41° |
| 2026-05-07 16:50 | 56.40202 | -111.62490 | 35857 ft | 446 kts | 41° |
| 2026-05-07 16:50 | 56.44326 | -111.54129 | 35858 ft | 445 kts | 41° |
| 2026-05-07 16:51 | 56.48436 | -111.45772 | 35855 ft | 444 kts | 41° |
| 2026-05-07 16:51 | 56.52543 | -111.37394 | 35851 ft | 444 kts | 41° |
| 2026-05-07 16:52 | 56.56614 | -111.29057 | 35859 ft | 443 kts | 42° |
| 2026-05-07 16:52 | 56.60703 | -111.20655 | 35852 ft | 443 kts | 42° |
| 2026-05-07 16:53 | 56.64785 | -111.12274 | 35855 ft | 441 kts | 40° |
| 2026-05-07 16:53 | 56.69189 | -111.04725 | 35852 ft | 436 kts | 36° |
| 2026-05-07 16:54 | 56.73725 | -110.97398 | 35859 ft | 436 kts | 35° |
| 2026-05-07 16:54 | 56.78249 | -110.90042 | 35864 ft | 435 kts | 36° |
| 2026-05-07 16:55 | 56.82756 | -110.82617 | 35868 ft | 435 kts | 36° |
| 2026-05-07 16:55 | 56.87238 | -110.75177 | 35862 ft | 435 kts | 36° |
| 2026-05-07 16:56 | 56.91714 | -110.67713 | 35869 ft | 435 kts | 37° |
| 2026-05-07 16:56 | 56.98390 | -110.56531 | 35867 ft | 435 kts | 37° |
| 2026-05-07 16:57 | 57.02864 | -110.49008 | 35868 ft | 436 kts | 37° |
| 2026-05-07 16:57 | 57.07337 | -110.41464 | 35869 ft | 436 kts | 37° |
| 2026-05-07 16:58 | 57.11791 | -110.33923 | 35867 ft | 437 kts | 37° |
| 2026-05-07 16:58 | 57.16271 | -110.26309 | 35863 ft | 438 kts | 37° |
| 2026-05-07 16:59 | 57.20745 | -110.18683 | 35865 ft | 438 kts | 37° |
| 2026-05-07 16:59 | 57.25222 | -110.11023 | 35867 ft | 438 kts | 37° |
| 2026-05-07 17:00 | 57.29685 | -110.03361 | 35861 ft | 438 kts | 37° |
| 2026-05-07 17:00 | 57.34145 | -109.95677 | 35863 ft | 437 kts | 37° |
| 2026-05-07 17:01 | 57.38560 | -109.88042 | 35863 ft | 436 kts | 37° |
| 2026-05-07 17:01 | 57.42991 | -109.80355 | 35866 ft | 435 kts | 37° |
| 2026-05-07 17:02 | 57.47405 | -109.72673 | 35873 ft | 434 kts | 38° |
| 2026-05-07 17:02 | 57.49606 | -109.68839 | 36107 ft | 434 kts | 40° |
| 2026-05-07 17:02 | 57.51828 | -109.64965 | 35992 ft | 440 kts | 40° |
| 2026-05-07 17:03 | 57.56327 | -109.57079 | 35924 ft | 447 kts | 40° |
| 2026-05-07 17:03 | 57.60888 | -109.49055 | 35890 ft | 453 kts | 40° |
| 2026-05-07 17:04 | 57.65463 | -109.40972 | 35891 ft | 457 kts | 40° |
| 2026-05-07 17:04 | 57.70102 | -109.32752 | 35888 ft | 461 kts | 40° |
| 2026-05-07 17:05 | 57.74768 | -109.24451 | 35886 ft | 463 kts | 41° |
| 2026-05-07 17:05 | 57.79439 | -109.16107 | 35883 ft | 464 kts | 41° |
| 2026-05-07 17:06 | 57.84105 | -109.07743 | 35896 ft | 463 kts | 41° |
| 2026-05-07 17:06 | 57.88749 | -108.99388 | 35903 ft | 461 kts | 41° |
| 2026-05-07 17:07 | 57.93369 | -108.91044 | 35910 ft | 460 kts | 41° |
| 2026-05-07 17:07 | 57.97939 | -108.82763 | 35909 ft | 458 kts | 41° |
| 2026-05-07 17:08 | 58.02522 | -108.74425 | 35918 ft | 457 kts | 41° |
| 2026-05-07 17:08 | 58.07092 | -108.66081 | 35927 ft | 456 kts | 41° |
| 2026-05-07 17:09 | 58.11643 | -108.57741 | 35929 ft | 455 kts | 41° |
| 2026-05-07 17:09 | 58.16182 | -108.49387 | 35940 ft | 454 kts | 41° |
| 2026-05-07 17:10 | 58.20683 | -108.41073 | 35940 ft | 454 kts | 41° |
| 2026-05-07 17:10 | 58.25201 | -108.32700 | 35944 ft | 454 kts | 42° |
| 2026-05-07 17:11 | 58.29723 | -108.24287 | 35947 ft | 454 kts | 42° |
| 2026-05-07 17:11 | 58.34211 | -108.15906 | 35953 ft | 455 kts | 42° |
| 2026-05-07 17:12 | 58.38730 | -108.07435 | 35960 ft | 455 kts | 42° |
| 2026-05-07 17:12 | 58.43249 | -107.98931 | 35960 ft | 456 kts | 42° |
| 2026-05-07 17:13 | 58.47742 | -107.90445 | 35960 ft | 457 kts | 42° |
| 2026-05-07 17:13 | 58.52262 | -107.81873 | 35960 ft | 458 kts | 42° |
| 2026-05-07 17:14 | 58.56784 | -107.73265 | 35965 ft | 458 kts | 43° |
| 2026-05-07 17:14 | 58.61304 | -107.64630 | 35960 ft | 459 kts | 43° |
| 2026-05-07 17:15 | 58.65818 | -107.55970 | 35962 ft | 458 kts | 43° |
| 2026-05-07 17:15 | 58.70322 | -107.47294 | 35963 ft | 457 kts | 43° |
| 2026-05-07 17:16 | 58.74783 | -107.38666 | 35966 ft | 457 kts | 43° |
| 2026-05-07 17:16 | 58.79261 | -107.29978 | 35965 ft | 456 kts | 43° |
| 2026-05-07 17:17 | 58.83725 | -107.21284 | 35965 ft | 455 kts | 43° |
| 2026-05-07 17:17 | 58.88179 | -107.12568 | 35961 ft | 455 kts | 43° |
| 2026-05-07 17:18 | 58.92625 | -107.03837 | 35962 ft | 453 kts | 43° |
| 2026-05-07 17:18 | 58.97038 | -106.95138 | 35966 ft | 452 kts | 43° |
| 2026-05-07 17:19 | 59.01413 | -106.86484 | 35979 ft | 451 kts | 43° |
| 2026-05-07 17:19 | 59.05802 | -106.77766 | 35974 ft | 451 kts | 43° |
| 2026-05-07 17:20 | 59.09440 | -106.70511 | 35973 ft | 450 kts | 43° |
| 2026-05-07 17:20 | 59.13810 | -106.61768 | 35973 ft | 450 kts | 43° |
| 2026-05-07 17:21 | 59.18163 | -106.53025 | 35971 ft | 450 kts | 43° |
| 2026-05-07 17:21 | 59.22518 | -106.44244 | 35971 ft | 450 kts | 43° |
| 2026-05-07 17:22 | 59.26864 | -106.35448 | 35964 ft | 450 kts | 43° |
| 2026-05-07 17:22 | 59.31202 | -106.26632 | 35956 ft | 450 kts | 43° |
| 2026-05-07 17:23 | 59.35536 | -106.17789 | 35952 ft | 450 kts | 43° |
| 2026-05-07 17:23 | 59.39840 | -106.08976 | 35954 ft | 450 kts | 44° |
| 2026-05-07 17:24 | 59.44160 | -106.00091 | 35955 ft | 450 kts | 44° |
| 2026-05-07 17:24 | 59.48479 | -105.91172 | 35962 ft | 450 kts | 44° |
| 2026-05-07 17:25 | 59.52793 | -105.82232 | 35968 ft | 451 kts | 44° |
| 2026-05-07 17:25 | 59.57103 | -105.73262 | 35979 ft | 450 kts | 44° |
| 2026-05-07 17:26 | 59.61400 | -105.64284 | 35982 ft | 449 kts | 44° |
| 2026-05-07 17:26 | 59.65686 | -105.55295 | 35981 ft | 449 kts | 44° |
| 2026-05-07 17:27 | 59.69955 | -105.46304 | 35989 ft | 448 kts | 44° |
| 2026-05-07 17:27 | 59.74219 | -105.37290 | 35992 ft | 447 kts | 44° |
| 2026-05-07 17:28 | 59.78443 | -105.28322 | 35993 ft | 447 kts | 44° |
| 2026-05-07 17:28 | 59.82678 | -105.19297 | 35992 ft | 446 kts | 44° |
| 2026-05-07 17:29 | 59.86900 | -105.10261 | 35991 ft | 445 kts | 44° |
| 2026-05-07 17:29 | 59.91113 | -105.01209 | 36001 ft | 445 kts | 44° |
| 2026-05-07 17:30 | 59.95320 | -104.92136 | 36000 ft | 445 kts | 44° |
| 2026-05-07 17:30 | 59.99520 | -104.83038 | 36000 ft | 445 kts | 44° |
| 2026-05-07 17:31 | 60.03710 | -104.73927 | 36003 ft | 445 kts | 44° |
| 2026-05-07 17:31 | 60.07868 | -104.64851 | 36001 ft | 445 kts | 45° |
| 2026-05-07 17:32 | 60.12047 | -104.55690 | 35999 ft | 445 kts | 45° |
| 2026-05-07 17:32 | 60.16216 | -104.46514 | 36003 ft | 445 kts | 45° |
| 2026-05-07 17:33 | 60.20376 | -104.37318 | 36006 ft | 445 kts | 45° |
| 2026-05-07 17:33 | 60.24538 | -104.28080 | 36007 ft | 445 kts | 45° |
| 2026-05-07 17:34 | 60.28676 | -104.18862 | 36009 ft | 446 kts | 45° |
| 2026-05-07 17:34 | 60.32834 | -104.09560 | 36002 ft | 447 kts | 45° |
| 2026-05-07 17:35 | 60.36995 | -104.00215 | 36003 ft | 447 kts | 45° |
| 2026-05-07 17:35 | 60.41156 | -103.90828 | 35998 ft | 447 kts | 45° |
| 2026-05-07 17:36 | 60.45303 | -103.81432 | 35999 ft | 447 kts | 45° |
| 2026-05-07 17:36 | 60.49447 | -103.72010 | 35993 ft | 447 kts | 46° |
| 2026-05-07 17:37 | 60.53575 | -103.62581 | 35992 ft | 447 kts | 46° |
| 2026-05-07 17:37 | 60.57681 | -103.53163 | 35986 ft | 446 kts | 46° |
| 2026-05-07 17:38 | 60.61803 | -103.43670 | 35982 ft | 446 kts | 46° |
| 2026-05-07 17:38 | 60.65910 | -103.34171 | 35976 ft | 446 kts | 46° |
| 2026-05-07 17:39 | 60.69972 | -103.24742 | 35980 ft | 445 kts | 46° |
| 2026-05-07 17:39 | 60.74055 | -103.15219 | 35978 ft | 444 kts | 46° |
| 2026-05-07 17:40 | 60.78122 | -103.05690 | 35990 ft | 444 kts | 46° |
| 2026-05-07 17:40 | 60.82180 | -102.96145 | 35978 ft | 444 kts | 46° |
| 2026-05-07 17:41 | 60.86233 | -102.86577 | 35973 ft | 445 kts | 46° |
| 2026-05-07 17:41 | 60.90286 | -102.76966 | 35988 ft | 444 kts | 46° |
| 2026-05-07 17:42 | 60.94303 | -102.67398 | 35986 ft | 444 kts | 46° |
| 2026-05-07 17:42 | 60.98339 | -102.57744 | 35982 ft | 444 kts | 46° |
| 2026-05-07 17:43 | 61.02365 | -102.48069 | 35986 ft | 444 kts | 46° |
| 2026-05-07 17:43 | 61.06387 | -102.38369 | 35986 ft | 444 kts | 46° |
| 2026-05-07 17:44 | 61.10401 | -102.28645 | 35992 ft | 444 kts | 46° |
| 2026-05-07 17:44 | 61.14381 | -102.18962 | 35989 ft | 444 kts | 46° |
| 2026-05-07 17:45 | 61.18382 | -102.09184 | 35991 ft | 445 kts | 46° |
| 2026-05-07 17:45 | 61.22380 | -101.99377 | 35987 ft | 445 kts | 46° |
| 2026-05-07 17:46 | 61.26371 | -101.89543 | 35991 ft | 445 kts | 46° |
| 2026-05-07 17:46 | 61.30350 | -101.79692 | 35988 ft | 444 kts | 46° |
| 2026-05-07 17:47 | 61.34324 | -101.69810 | 35984 ft | 444 kts | 47° |
| 2026-05-07 17:47 | 61.38262 | -101.59979 | 35985 ft | 444 kts | 47° |
| 2026-05-07 17:48 | 61.42224 | -101.50039 | 35986 ft | 444 kts | 47° |
| 2026-05-07 17:48 | 61.46172 | -101.40089 | 35985 ft | 444 kts | 47° |
| 2026-05-07 17:49 | 61.50095 | -101.30170 | 35980 ft | 444 kts | 47° |
| 2026-05-07 17:49 | 61.54030 | -101.20174 | 35979 ft | 444 kts | 47° |
| 2026-05-07 17:50 | 61.57955 | -101.10160 | 35980 ft | 444 kts | 47° |
| 2026-05-07 17:50 | 61.61879 | -101.00101 | 35975 ft | 444 kts | 48° |
| 2026-05-07 17:51 | 61.65763 | -100.90103 | 35976 ft | 444 kts | 48° |
| 2026-05-07 17:51 | 61.69683 | -100.79966 | 35976 ft | 445 kts | 48° |
| 2026-05-07 17:52 | 61.73588 | -100.69822 | 35968 ft | 445 kts | 48° |
| 2026-05-07 17:52 | 61.77482 | -100.59662 | 35957 ft | 445 kts | 48° |
| 2026-05-07 17:53 | 61.81373 | -100.49461 | 35969 ft | 445 kts | 49° |
| 2026-05-07 17:53 | 61.85234 | -100.39300 | 35958 ft | 446 kts | 49° |
| 2026-05-07 17:54 | 61.89118 | -100.29028 | 35959 ft | 445 kts | 49° |
| 2026-05-07 17:54 | 61.92992 | -100.18738 | 35956 ft | 446 kts | 49° |
| 2026-05-07 17:55 | 61.96861 | -100.08417 | 35949 ft | 446 kts | 49° |
| 2026-05-07 17:55 | 62.00731 | -99.98169 | 35945 ft | 446 kts | 47° |
| 2026-05-07 17:56 | 62.04883 | -99.88375 | 35948 ft | 445 kts | 45° |
| 2026-05-07 17:56 | 62.09127 | -99.78726 | 35935 ft | 445 kts | 45° |
| 2026-05-07 17:57 | 62.12638 | -99.70663 | 35938 ft | 445 kts | 45° |
| 2026-05-07 17:57 | 62.17516 | -99.59306 | 35926 ft | 445 kts | 45° |
| 2026-05-07 17:58 | 62.21691 | -99.49496 | 35927 ft | 445 kts | 46° |
| 2026-05-07 17:58 | 62.25857 | -99.39658 | 35922 ft | 445 kts | 46° |
| 2026-05-07 17:59 | 62.30018 | -99.29790 | 35910 ft | 445 kts | 46° |
| 2026-05-07 17:59 | 62.34168 | -99.19900 | 35909 ft | 445 kts | 46° |
| 2026-05-07 18:00 | 62.38313 | -99.09978 | 35904 ft | 445 kts | 46° |
| 2026-05-07 18:00 | 62.42454 | -99.00026 | 35900 ft | 446 kts | 46° |
| 2026-05-07 18:01 | 62.46593 | -98.90035 | 35892 ft | 446 kts | 46° |
| 2026-05-07 18:01 | 62.50694 | -98.80089 | 35891 ft | 446 kts | 46° |
| 2026-05-07 18:02 | 62.56878 | -98.65010 | 35885 ft | 446 kts | 47° |
| 2026-05-07 18:03 | 62.60991 | -98.54921 | 35874 ft | 446 kts | 47° |
| 2026-05-07 18:03 | 62.65097 | -98.44804 | 35869 ft | 446 kts | 47° |
| 2026-05-07 18:04 | 62.69194 | -98.34662 | 35869 ft | 446 kts | 47° |
| 2026-05-07 18:04 | 62.73283 | -98.24495 | 35864 ft | 446 kts | 47° |
| 2026-05-07 18:05 | 62.77338 | -98.14368 | 35856 ft | 445 kts | 47° |
| 2026-05-07 18:05 | 62.81406 | -98.04158 | 35851 ft | 445 kts | 47° |
| 2026-05-07 18:06 | 62.85467 | -97.93924 | 35846 ft | 445 kts | 47° |
| 2026-05-07 18:06 | 62.88862 | -97.85330 | 35841 ft | 445 kts | 48° |
| 2026-05-07 18:07 | 62.92904 | -97.75056 | 35842 ft | 444 kts | 48° |
| 2026-05-07 18:07 | 62.96906 | -97.64834 | 35833 ft | 444 kts | 48° |
| 2026-05-07 18:08 | 63.00925 | -97.54526 | 35833 ft | 443 kts | 48° |
| 2026-05-07 18:08 | 63.04938 | -97.44186 | 35830 ft | 443 kts | 49° |
| 2026-05-07 18:09 | 63.08936 | -97.33832 | 35823 ft | 443 kts | 49° |
| 2026-05-07 18:09 | 63.12925 | -97.23452 | 35818 ft | 443 kts | 49° |
| 2026-05-07 18:10 | 63.16886 | -97.13098 | 35817 ft | 443 kts | 49° |
| 2026-05-07 18:10 | 63.20871 | -97.02637 | 35815 ft | 443 kts | 49° |
| 2026-05-07 18:11 | 63.24844 | -96.92157 | 35812 ft | 444 kts | 49° |
| 2026-05-07 18:11 | 63.28786 | -96.81710 | 35812 ft | 443 kts | 50° |
| 2026-05-07 18:12 | 63.32741 | -96.71179 | 35804 ft | 443 kts | 50° |
| 2026-05-07 18:12 | 63.36691 | -96.60606 | 35804 ft | 444 kts | 50° |
| 2026-05-07 18:13 | 63.40641 | -96.49985 | 35804 ft | 444 kts | 50° |
| 2026-05-07 18:13 | 63.44590 | -96.39320 | 35797 ft | 445 kts | 50° |
| 2026-05-07 18:14 | 63.48514 | -96.28671 | 35794 ft | 446 kts | 50° |
| 2026-05-07 18:14 | 63.52451 | -96.17935 | 35793 ft | 446 kts | 50° |
| 2026-05-07 18:15 | 63.56382 | -96.07165 | 35785 ft | 446 kts | 50° |
| 2026-05-07 18:15 | 63.60310 | -95.96351 | 35788 ft | 446 kts | 51° |
| 2026-05-07 18:16 | 63.64228 | -95.85512 | 35784 ft | 446 kts | 51° |
| 2026-05-07 18:16 | 63.68113 | -95.74715 | 35782 ft | 446 kts | 51° |
| 2026-05-07 18:17 | 63.72009 | -95.63833 | 35781 ft | 446 kts | 51° |
| 2026-05-07 18:17 | 63.75896 | -95.52915 | 35777 ft | 445 kts | 51° |
| 2026-05-07 18:18 | 63.79773 | -95.41973 | 35770 ft | 445 kts | 51° |
| 2026-05-07 18:18 | 63.83613 | -95.31087 | 35771 ft | 444 kts | 51° |
| 2026-05-07 18:19 | 63.87461 | -95.20128 | 35769 ft | 444 kts | 51° |
| 2026-05-07 18:19 | 63.91301 | -95.09137 | 35761 ft | 443 kts | 52° |
| 2026-05-07 18:20 | 63.95124 | -94.98136 | 35756 ft | 443 kts | 52° |
| 2026-05-07 18:20 | 63.98933 | -94.87125 | 35761 ft | 442 kts | 52° |
| 2026-05-07 18:21 | 64.02732 | -94.76090 | 35751 ft | 442 kts | 52° |
| 2026-05-07 18:21 | 64.06494 | -94.65108 | 35751 ft | 441 kts | 52° |
| 2026-05-07 18:22 | 64.10268 | -94.54038 | 35753 ft | 441 kts | 52° |
| 2026-05-07 18:22 | 64.14036 | -94.42928 | 35746 ft | 441 kts | 52° |
| 2026-05-07 18:23 | 64.17795 | -94.31787 | 35751 ft | 441 kts | 52° |
| 2026-05-07 18:23 | 64.21544 | -94.20622 | 35740 ft | 442 kts | 52° |
| 2026-05-07 18:24 | 64.25293 | -94.09408 | 35744 ft | 442 kts | 52° |
| 2026-05-07 18:24 | 64.29037 | -93.98146 | 35742 ft | 442 kts | 53° |
| 2026-05-07 18:25 | 64.32748 | -93.86928 | 35741 ft | 443 kts | 53° |
| 2026-05-07 18:25 | 64.36472 | -93.75611 | 35743 ft | 443 kts | 53° |
| 2026-05-07 18:26 | 64.40198 | -93.64242 | 35739 ft | 443 kts | 53° |
| 2026-05-07 18:26 | 64.43920 | -93.52818 | 35738 ft | 443 kts | 53° |
| 2026-05-07 18:27 | 64.47600 | -93.41459 | 35733 ft | 443 kts | 53° |
| 2026-05-07 18:27 | 64.51306 | -93.29971 | 35738 ft | 443 kts | 53° |
| 2026-05-07 18:28 | 64.54999 | -93.18464 | 35733 ft | 443 kts | 53° |
| 2026-05-07 18:28 | 64.58679 | -93.06938 | 35731 ft | 443 kts | 54° |
| 2026-05-07 18:29 | 64.62325 | -92.95460 | 35731 ft | 443 kts | 54° |
| 2026-05-07 18:29 | 64.65980 | -92.83887 | 35733 ft | 443 kts | 54° |
| 2026-05-07 18:30 | 64.69624 | -92.72293 | 35736 ft | 442 kts | 54° |
| 2026-05-07 18:30 | 64.73254 | -92.60692 | 35733 ft | 442 kts | 54° |
| 2026-05-07 18:31 | 64.76871 | -92.49063 | 35733 ft | 441 kts | 54° |
| 2026-05-07 18:31 | 64.80478 | -92.37406 | 35732 ft | 440 kts | 54° |
| 2026-05-07 18:32 | 64.84066 | -92.25750 | 35732 ft | 440 kts | 54° |
| 2026-05-07 18:32 | 64.87631 | -92.14114 | 35733 ft | 440 kts | 54° |
| 2026-05-07 18:33 | 64.91198 | -92.02408 | 35734 ft | 440 kts | 55° |
| 2026-05-07 18:33 | 64.94758 | -91.90658 | 35734 ft | 439 kts | 55° |
| 2026-05-07 18:34 | 64.98278 | -91.78982 | 35737 ft | 439 kts | 55° |
| 2026-05-07 18:34 | 65.01814 | -91.67199 | 35735 ft | 439 kts | 55° |
| 2026-05-07 18:35 | 65.05339 | -91.55381 | 35735 ft | 439 kts | 56° |
| 2026-05-07 18:35 | 65.08858 | -91.43526 | 35736 ft | 439 kts | 56° |
| 2026-05-07 18:36 | 65.12370 | -91.31622 | 35738 ft | 439 kts | 56° |
| 2026-05-07 18:36 | 65.15851 | -91.19771 | 35741 ft | 440 kts | 56° |
| 2026-05-07 18:37 | 65.19349 | -91.07796 | 35740 ft | 440 kts | 56° |
| 2026-05-07 18:37 | 65.22843 | -90.95773 | 35739 ft | 440 kts | 56° |
| 2026-05-07 18:38 | 65.26300 | -90.83807 | 35740 ft | 440 kts | 57° |
| 2026-05-07 18:38 | 65.29772 | -90.71725 | 35743 ft | 440 kts | 57° |
| 2026-05-07 18:39 | 65.33231 | -90.59629 | 35736 ft | 440 kts | 57° |
| 2026-05-07 18:39 | 65.36675 | -90.47508 | 35736 ft | 440 kts | 57° |
| 2026-05-07 18:40 | 65.40107 | -90.35369 | 35737 ft | 439 kts | 57° |
| 2026-05-07 18:40 | 65.43509 | -90.23270 | 35738 ft | 439 kts | 57° |
| 2026-05-07 18:41 | 65.46914 | -90.11098 | 35737 ft | 438 kts | 57° |
| 2026-05-07 18:41 | 65.50309 | -89.98890 | 35743 ft | 438 kts | 58° |
| 2026-05-07 18:42 | 65.53508 | -89.86411 | 35742 ft | 437 kts | 60° |
| 2026-05-07 18:42 | 65.56587 | -89.73807 | 35955 ft | 431 kts | 60° |
| 2026-05-07 18:42 | 65.58104 | -89.67582 | 36133 ft | 429 kts | 60° |
| 2026-05-07 18:43 | 65.59617 | -89.61385 | 36331 ft | 427 kts | 60° |
| 2026-05-07 18:43 | 65.61132 | -89.55190 | 36518 ft | 426 kts | 60° |
| 2026-05-07 18:43 | 65.62620 | -89.49108 | 36716 ft | 424 kts | 60° |
| 2026-05-07 18:43 | 65.64118 | -89.42977 | 36898 ft | 421 kts | 60° |
| 2026-05-07 18:44 | 65.65607 | -89.36878 | 37099 ft | 419 kts | 60° |
| 2026-05-07 18:44 | 65.67085 | -89.30803 | 37294 ft | 416 kts | 60° |
| 2026-05-07 18:44 | 65.68551 | -89.24765 | 37491 ft | 413 kts | 60° |
| 2026-05-07 18:44 | 65.70003 | -89.18764 | 37691 ft | 411 kts | 60° |
| 2026-05-07 18:45 | 65.71448 | -89.12779 | 37736 ft | 412 kts | 60° |
| 2026-05-07 18:45 | 65.74353 | -89.00692 | 37736 ft | 415 kts | 60° |
| 2026-05-07 18:46 | 65.77249 | -88.88574 | 37748 ft | 418 kts | 60° |
| 2026-05-07 18:46 | 65.80182 | -88.76236 | 37754 ft | 421 kts | 60° |
| 2026-05-07 18:47 | 65.83122 | -88.63797 | 37753 ft | 425 kts | 60° |
| 2026-05-07 18:47 | 65.86075 | -88.51211 | 37757 ft | 428 kts | 60° |
| 2026-05-07 18:48 | 65.89038 | -88.38534 | 37749 ft | 431 kts | 60° |
| 2026-05-07 18:48 | 65.92009 | -88.25747 | 37743 ft | 432 kts | 60° |
| 2026-05-07 18:49 | 65.94964 | -88.12953 | 37747 ft | 431 kts | 61° |
| 2026-05-07 18:49 | 65.97908 | -88.00124 | 37743 ft | 431 kts | 61° |
| 2026-05-07 18:50 | 66.00846 | -87.87247 | 37763 ft | 433 kts | 61° |
| 2026-05-07 18:50 | 66.03787 | -87.74283 | 37749 ft | 434 kts | 61° |
| 2026-05-07 18:51 | 66.06704 | -87.61341 | 37765 ft | 436 kts | 61° |
| 2026-05-07 18:51 | 66.09644 | -87.48221 | 37754 ft | 438 kts | 62° |
| 2026-05-07 18:52 | 66.12575 | -87.35059 | 37743 ft | 436 kts | 62° |
| 2026-05-07 18:52 | 66.14996 | -87.24134 | 37762 ft | 436 kts | 62° |
| 2026-05-07 18:53 | 66.17909 | -87.10906 | 37756 ft | 439 kts | 62° |
| 2026-05-07 18:53 | 66.20824 | -86.97587 | 37757 ft | 441 kts | 62° |
| 2026-05-07 18:54 | 66.23743 | -86.84160 | 37770 ft | 443 kts | 62° |
| 2026-05-07 18:54 | 66.26648 | -86.70721 | 37754 ft | 446 kts | 62° |
| 2026-05-07 18:55 | 66.29576 | -86.57087 | 37751 ft | 448 kts | 62° |
| 2026-05-07 18:55 | 66.32503 | -86.43370 | 37758 ft | 449 kts | 62° |
| 2026-05-07 18:56 | 66.35428 | -86.29572 | 37756 ft | 450 kts | 63° |
| 2026-05-07 18:56 | 66.38320 | -86.15849 | 37752 ft | 449 kts | 63° |
| 2026-05-07 18:57 | 66.41213 | -86.02016 | 37745 ft | 449 kts | 63° |
| 2026-05-07 18:57 | 66.44091 | -85.88172 | 37754 ft | 448 kts | 63° |
| 2026-05-07 18:58 | 66.46955 | -85.74305 | 37746 ft | 448 kts | 63° |
| 2026-05-07 18:58 | 66.49802 | -85.60429 | 37741 ft | 447 kts | 63° |
| 2026-05-07 18:59 | 66.52629 | -85.46562 | 37749 ft | 446 kts | 63° |
| 2026-05-07 18:59 | 66.55440 | -85.32681 | 37743 ft | 445 kts | 64° |
| 2026-05-07 19:00 | 66.58209 | -85.18911 | 37752 ft | 444 kts | 64° |
| 2026-05-07 19:00 | 66.60979 | -85.05043 | 37752 ft | 442 kts | 64° |
| 2026-05-07 19:01 | 66.63725 | -84.91210 | 37750 ft | 441 kts | 64° |
| 2026-05-07 19:01 | 66.66447 | -84.77412 | 37741 ft | 437 kts | 64° |
| 2026-05-07 19:02 | 66.69109 | -84.63824 | 37737 ft | 433 kts | 64° |
| 2026-05-07 19:02 | 66.71760 | -84.50196 | 37761 ft | 429 kts | 64° |
| 2026-05-07 19:03 | 66.74375 | -84.36667 | 37750 ft | 427 kts | 65° |
| 2026-05-07 19:03 | 66.76975 | -84.23119 | 37756 ft | 429 kts | 65° |
| 2026-05-07 19:04 | 66.79567 | -84.09540 | 37761 ft | 432 kts | 65° |
| 2026-05-07 19:04 | 66.82185 | -83.95728 | 37771 ft | 435 kts | 65° |
| 2026-05-07 19:05 | 66.84810 | -83.81784 | 37759 ft | 438 kts | 66° |
| 2026-05-07 19:05 | 66.87433 | -83.67760 | 37762 ft | 439 kts | 66° |
| 2026-05-07 19:06 | 66.90013 | -83.53863 | 37754 ft | 434 kts | 66° |
| 2026-05-07 19:06 | 66.93815 | -83.33213 | 37754 ft | 426 kts | 66° |
| 2026-05-07 19:07 | 66.96310 | -83.19545 | 37760 ft | 423 kts | 67° |
| 2026-05-07 19:07 | 66.98794 | -83.05846 | 37777 ft | 426 kts | 67° |
| 2026-05-07 19:08 | 67.01284 | -82.92013 | 37778 ft | 430 kts | 67° |
| 2026-05-07 19:08 | 67.03766 | -82.78134 | 37774 ft | 433 kts | 67° |
| 2026-05-07 19:09 | 67.06271 | -82.64032 | 37776 ft | 436 kts | 67° |
| 2026-05-07 19:09 | 67.08783 | -82.49785 | 37768 ft | 438 kts | 67° |
| 2026-05-07 19:10 | 67.11287 | -82.35484 | 37766 ft | 438 kts | 68° |
| 2026-05-07 19:10 | 67.13760 | -82.21268 | 37757 ft | 431 kts | 68° |
| 2026-05-07 19:11 | 67.16175 | -82.07285 | 37765 ft | 426 kts | 68° |
| 2026-05-07 19:11 | 67.18553 | -81.93413 | 37771 ft | 424 kts | 68° |
| 2026-05-07 19:12 | 67.20924 | -81.79481 | 37778 ft | 424 kts | 68° |
| 2026-05-07 19:12 | 67.23279 | -81.65544 | 37775 ft | 424 kts | 68° |
| 2026-05-07 19:13 | 67.25625 | -81.51561 | 37780 ft | 425 kts | 69° |
| 2026-05-07 19:13 | 67.27965 | -81.37514 | 37780 ft | 426 kts | 69° |
| 2026-05-07 19:14 | 67.30305 | -81.23370 | 37777 ft | 428 kts | 69° |
| 2026-05-07 19:14 | 67.32624 | -81.09246 | 37780 ft | 429 kts | 69° |
| 2026-05-07 19:15 | 67.34953 | -80.94959 | 37777 ft | 431 kts | 69° |
| 2026-05-07 19:15 | 67.37280 | -80.80577 | 37768 ft | 432 kts | 69° |
| 2026-05-07 19:16 | 67.39604 | -80.66105 | 37771 ft | 433 kts | 69° |
| 2026-05-07 19:16 | 67.41904 | -80.51679 | 37778 ft | 434 kts | 70° |
| 2026-05-07 19:17 | 67.44209 | -80.37104 | 37767 ft | 436 kts | 70° |
| 2026-05-07 19:17 | 67.46492 | -80.22558 | 37767 ft | 435 kts | 70° |
| 2026-05-07 19:18 | 67.48775 | -80.07925 | 37769 ft | 434 kts | 70° |
| 2026-05-07 19:18 | 67.50990 | -79.93290 | 37766 ft | 433 kts | 72° |
| 2026-05-07 19:19 | 67.52983 | -79.78459 | 37769 ft | 430 kts | 73° |
| 2026-05-07 19:19 | 67.54901 | -79.63765 | 37775 ft | 428 kts | 73° |
| 2026-05-07 19:20 | 67.56828 | -79.49041 | 37774 ft | 427 kts | 73° |
| 2026-05-07 19:20 | 67.58753 | -79.34342 | 37773 ft | 426 kts | 73° |
| 2026-05-07 19:21 | 67.60667 | -79.19648 | 37775 ft | 425 kts | 73° |
| 2026-05-07 19:21 | 67.62553 | -79.05056 | 37771 ft | 424 kts | 73° |
| 2026-05-07 19:22 | 67.64435 | -78.90359 | 37776 ft | 424 kts | 73° |
| 2026-05-07 19:22 | 67.66307 | -78.75611 | 37778 ft | 425 kts | 73° |
| 2026-05-07 19:23 | 67.68167 | -78.60839 | 37777 ft | 426 kts | 74° |
| 2026-05-07 19:23 | 67.70018 | -78.46002 | 37777 ft | 427 kts | 74° |
| 2026-05-07 19:24 | 67.71849 | -78.31190 | 37781 ft | 428 kts | 74° |
| 2026-05-07 19:24 | 67.73684 | -78.16215 | 37779 ft | 429 kts | 74° |
| 2026-05-07 19:25 | 67.75508 | -78.01196 | 37780 ft | 430 kts | 75° |
| 2026-05-07 19:25 | 67.77310 | -77.86225 | 37782 ft | 430 kts | 75° |
| 2026-05-07 19:26 | 67.79107 | -77.71152 | 37786 ft | 430 kts | 75° |
| 2026-05-07 19:26 | 67.80891 | -77.56055 | 37790 ft | 429 kts | 75° |
| 2026-05-07 19:27 | 67.82660 | -77.40945 | 37790 ft | 429 kts | 75° |
| 2026-05-07 19:27 | 67.84397 | -77.25968 | 37792 ft | 427 kts | 75° |
| 2026-05-07 19:28 | 67.86123 | -77.10926 | 37788 ft | 425 kts | 75° |
| 2026-05-07 19:28 | 67.87828 | -76.95943 | 37794 ft | 424 kts | 75° |
| 2026-05-07 19:29 | 67.89514 | -76.80981 | 37803 ft | 422 kts | 76° |
| 2026-05-07 19:29 | 67.91178 | -76.66066 | 37804 ft | 420 kts | 76° |
| 2026-05-07 19:30 | 67.92824 | -76.51189 | 37805 ft | 418 kts | 76° |
| 2026-05-07 19:30 | 67.94438 | -76.36450 | 37811 ft | 417 kts | 76° |
| 2026-05-07 19:31 | 67.96051 | -76.21596 | 37811 ft | 416 kts | 76° |
| 2026-05-07 19:31 | 67.97644 | -76.06778 | 37810 ft | 416 kts | 76° |
| 2026-05-07 19:32 | 67.99219 | -75.91939 | 37824 ft | 416 kts | 76° |
| 2026-05-07 19:32 | 68.00783 | -75.77058 | 37819 ft | 417 kts | 76° |
| 2026-05-07 19:33 | 68.02337 | -75.62127 | 37819 ft | 418 kts | 76° |
| 2026-05-07 19:33 | 68.03877 | -75.47224 | 37825 ft | 419 kts | 76° |
| 2026-05-07 19:34 | 68.05418 | -75.32155 | 37826 ft | 421 kts | 76° |
| 2026-05-07 19:34 | 68.06950 | -75.17024 | 37827 ft | 422 kts | 76° |
| 2026-05-07 19:35 | 68.08471 | -75.01800 | 37828 ft | 424 kts | 76° |
| 2026-05-07 19:35 | 68.09982 | -74.86546 | 37832 ft | 424 kts | 77° |
| 2026-05-07 19:36 | 68.11486 | -74.71243 | 37832 ft | 424 kts | 77° |
| 2026-05-07 19:36 | 68.12953 | -74.56022 | 37841 ft | 425 kts | 77° |
| 2026-05-07 19:37 | 68.14431 | -74.40648 | 37820 ft | 426 kts | 77° |
| 2026-05-07 19:37 | 68.15894 | -74.25264 | 37830 ft | 425 kts | 77° |
| 2026-05-07 19:38 | 68.17334 | -74.09911 | 37840 ft | 423 kts | 77° |
| 2026-05-07 19:38 | 68.18751 | -73.94556 | 37842 ft | 422 kts | 77° |
| 2026-05-07 19:39 | 68.20217 | -73.79309 | 37838 ft | 424 kts | 77° |
| 2026-05-07 19:39 | 68.21357 | -73.66456 | 37857 ft | 425 kts | 77° |
| 2026-05-07 19:40 | 68.22951 | -73.48342 | 37852 ft | 426 kts | 77° |
| 2026-05-07 19:40 | 68.24089 | -73.35432 | 37855 ft | 424 kts | 77° |
| 2026-05-07 19:41 | 68.25440 | -73.19873 | 37863 ft | 426 kts | 77° |
| 2026-05-07 19:41 | 68.26804 | -73.04271 | 37852 ft | 427 kts | 78° |
| 2026-05-07 19:42 | 68.28148 | -72.88614 | 37864 ft | 429 kts | 77° |
| 2026-05-07 19:42 | 68.29456 | -72.72942 | 37867 ft | 430 kts | 77° |
| 2026-05-07 19:43 | 68.30784 | -72.57160 | 37874 ft | 430 kts | 78° |
| 2026-05-07 19:43 | 68.32076 | -72.41411 | 37873 ft | 433 kts | 78° |
| 2026-05-07 19:44 | 68.33359 | -72.25463 | 37899 ft | 435 kts | 78° |
| 2026-05-07 19:44 | 68.34662 | -72.09376 | 37878 ft | 438 kts | 78° |
| 2026-05-07 19:45 | 68.35974 | -71.93329 | 37858 ft | 436 kts | 78° |
| 2026-05-07 19:45 | 68.37212 | -71.77196 | 37886 ft | 437 kts | 80° |
| 2026-05-07 19:46 | 68.38459 | -71.61079 | 37902 ft | 436 kts | 79° |
| 2026-05-07 19:46 | 68.39675 | -71.45049 | 37894 ft | 437 kts | 79° |
| 2026-05-07 19:47 | 68.40898 | -71.28891 | 37895 ft | 435 kts | 79° |
| 2026-05-07 19:47 | 68.42103 | -71.12739 | 37913 ft | 438 kts | 79° |
| 2026-05-07 19:48 | 68.43294 | -70.96501 | 37907 ft | 439 kts | 80° |
| 2026-05-07 19:48 | 68.44467 | -70.80172 | 37916 ft | 440 kts | 80° |
| 2026-05-07 19:49 | 68.45616 | -70.63826 | 37938 ft | 440 kts | 81° |
| 2026-05-07 19:49 | 68.46766 | -70.47542 | 37926 ft | 436 kts | 81° |
| 2026-05-07 19:50 | 68.47879 | -70.31507 | 37934 ft | 431 kts | 81° |
| 2026-05-07 19:50 | 68.48964 | -70.15536 | 37938 ft | 426 kts | 81° |
| 2026-05-07 19:51 | 68.50024 | -69.99710 | 37947 ft | 423 kts | 81° |
| 2026-05-07 19:51 | 68.51222 | -69.83948 | 37966 ft | 426 kts | 79° |
| 2026-05-07 19:52 | 68.52544 | -69.68049 | 37967 ft | 431 kts | 78° |
| 2026-05-07 19:52 | 68.53846 | -69.52014 | 37972 ft | 434 kts | 79° |
| 2026-05-07 19:53 | 68.55127 | -69.35799 | 37989 ft | 439 kts | 79° |
| 2026-05-07 19:53 | 68.56405 | -69.19513 | 37991 ft | 443 kts | 80° |
| 2026-05-07 19:54 | 68.57676 | -69.03001 | 38008 ft | 444 kts | 80° |
| 2026-05-07 19:54 | 68.58931 | -68.86412 | 38014 ft | 445 kts | 80° |
| 2026-05-07 19:55 | 68.60170 | -68.69774 | 38025 ft | 445 kts | 81° |
| 2026-05-07 19:55 | 68.61381 | -68.53283 | 38025 ft | 444 kts | 81° |
| 2026-05-07 19:56 | 68.62577 | -68.36707 | 38037 ft | 443 kts | 81° |
| 2026-05-07 19:56 | 68.63757 | -68.20153 | 38049 ft | 441 kts | 81° |
| 2026-05-07 19:57 | 68.64918 | -68.03626 | 38055 ft | 441 kts | 82° |
| 2026-05-07 19:57 | 68.66063 | -67.87075 | 38067 ft | 440 kts | 82° |